NKS880 KBWI-TJSJ
Flight info
| Callsign | NKS880 |
|---|---|
| Flight time | 3h 25m |
| Altitude | 35000 |
| Route | DUKPN1 DONIL DCT CORNE B24 WEBBB/M079F350 DCT ROLLE/M079F340 DCT ATUGI/M079F350 L454 LUCTI/N0463F350 L454 MNDEZ DCT FIPEK Y355 PLING RTE7 SAALR |
| Aircraft | A320/M-SDE3FGHIRWY/LB1 |
Departure
| Time | 2026-04-26 23:11 |
|---|---|
| Airport | Baltimore/Washington International Thurgood Marshall Airport (KBWI) |
Arrival
| Time | 2026-04-27 02:37 |
|---|---|
| Airport | Luis Munoz Marin International Airport (TJSJ) |
| Time | Latitude | Longitude | Altitude | Speed | Heading |
|---|---|---|---|---|---|
| 2026-04-26 22:50 | 39.17882 | -76.66518 | 156 ft | 0 kts | 54° |
| 2026-04-26 22:58 | 39.17876 | -76.66528 | 156 ft | 2 kts | 54° |
| 2026-04-26 22:58 | 39.17867 | -76.66546 | 156 ft | 2 kts | 54° |
| 2026-04-26 22:59 | 39.17857 | -76.66563 | 156 ft | 2 kts | 55° |
| 2026-04-26 22:59 | 39.17848 | -76.66581 | 156 ft | 2 kts | 66° |
| 2026-04-26 22:59 | 39.17850 | -76.66599 | 156 ft | 2 kts | 147° |
| 2026-04-26 22:59 | 39.17859 | -76.66607 | 156 ft | 1 kts | 145° |
| 2026-04-26 23:00 | 39.17860 | -76.66607 | 156 ft | 0 kts | 145° |
| 2026-04-26 23:01 | 39.17858 | -76.66606 | 156 ft | 1 kts | 143° |
| 2026-04-26 23:01 | 39.17852 | -76.66600 | 156 ft | 2 kts | 143° |
| 2026-04-26 23:02 | 39.17836 | -76.66585 | 156 ft | 4 kts | 143° |
| 2026-04-26 23:02 | 39.17809 | -76.66559 | 156 ft | 6 kts | 144° |
| 2026-04-26 23:02 | 39.17785 | -76.66536 | 156 ft | 2 kts | 144° |
| 2026-04-26 23:02 | 39.17767 | -76.66517 | 156 ft | 4 kts | 131° |
| 2026-04-26 23:03 | 39.17746 | -76.66476 | 156 ft | 7 kts | 122° |
| 2026-04-26 23:03 | 39.17711 | -76.66424 | 155 ft | 9 kts | 159° |
| 2026-04-26 23:03 | 39.17649 | -76.66455 | 155 ft | 11 kts | 213° |
| 2026-04-26 23:03 | 39.17579 | -76.66514 | 155 ft | 13 kts | 213° |
| 2026-04-26 23:04 | 39.17519 | -76.66595 | 154 ft | 13 kts | 258° |
| 2026-04-26 23:04 | 39.17525 | -76.66717 | 155 ft | 14 kts | 274° |
| 2026-04-26 23:04 | 39.17531 | -76.66838 | 156 ft | 14 kts | 274° |
| 2026-04-26 23:04 | 39.17544 | -76.66963 | 156 ft | 15 kts | 288° |
| 2026-04-26 23:05 | 39.17612 | -76.67061 | 156 ft | 15 kts | 324° |
| 2026-04-26 23:05 | 39.17698 | -76.67141 | 156 ft | 15 kts | 324° |
| 2026-04-26 23:05 | 39.17789 | -76.67226 | 155 ft | 16 kts | 324° |
| 2026-04-26 23:05 | 39.17886 | -76.67316 | 154 ft | 18 kts | 324° |
| 2026-04-26 23:06 | 39.17978 | -76.67402 | 153 ft | 12 kts | 323° |
| 2026-04-26 23:06 | 39.17989 | -76.67490 | 149 ft | 12 kts | 263° |
| 2026-04-26 23:06 | 39.18045 | -76.67570 | 148 ft | 13 kts | 325° |
| 2026-04-26 23:06 | 39.18123 | -76.67643 | 147 ft | 15 kts | 324° |
| 2026-04-26 23:07 | 39.18212 | -76.67725 | 146 ft | 17 kts | 324° |
| 2026-04-26 23:07 | 39.18277 | -76.67785 | 146 ft | 18 kts | 324° |
| 2026-04-26 23:07 | 39.18399 | -76.67899 | 147 ft | 15 kts | 324° |
| 2026-04-26 23:07 | 39.18484 | -76.67977 | 148 ft | 14 kts | 324° |
| 2026-04-26 23:08 | 39.18546 | -76.68035 | 148 ft | 8 kts | 323° |
| 2026-04-26 23:08 | 39.18570 | -76.68079 | 148 ft | 2 kts | 287° |
| 2026-04-26 23:08 | 39.18570 | -76.68085 | 148 ft | 0 kts | 279° |
| 2026-04-26 23:08 | 39.18570 | -76.68086 | 148 ft | 0 kts | 279° |
| 2026-04-26 23:09 | 39.18569 | -76.68102 | 148 ft | 4 kts | 263° |
| 2026-04-26 23:09 | 39.18546 | -76.68152 | 146 ft | 8 kts | 229° |
| 2026-04-26 23:09 | 39.18501 | -76.68167 | 145 ft | 6 kts | 151° |
| 2026-04-26 23:09 | 39.18496 | -76.68163 | 145 ft | 0 kts | 144° |
| 2026-04-26 23:10 | 39.18389 | -76.68062 | 146 ft | 52 kts | 144° |
| 2026-04-26 23:11 | 39.17916 | -76.67624 | 146 ft | 112 kts | 144° |
| 2026-04-26 23:11 | 39.17158 | -76.66912 | 162 ft | 155 kts | 139° |
| 2026-04-26 23:11 | 39.16270 | -76.66091 | 783 ft | 157 kts | 139° |
| 2026-04-26 23:11 | 39.15612 | -76.65024 | 1605 ft | 153 kts | 115° |
| 2026-04-26 23:12 | 39.15176 | -76.63762 | 2111 ft | 160 kts | 115° |
| 2026-04-26 23:12 | 39.14706 | -76.62353 | 2295 ft | 182 kts | 115° |
| 2026-04-26 23:12 | 39.14169 | -76.60757 | 2463 ft | 207 kts | 115° |
| 2026-04-26 23:12 | 39.13555 | -76.58959 | 2760 ft | 231 kts | 116° |
| 2026-04-26 23:13 | 39.12885 | -76.57015 | 3216 ft | 248 kts | 117° |
| 2026-04-26 23:13 | 39.12166 | -76.54936 | 3864 ft | 258 kts | 116° |
| 2026-04-26 23:13 | 39.11422 | -76.52800 | 4603 ft | 265 kts | 116° |
| 2026-04-26 23:13 | 39.10645 | -76.50574 | 5340 ft | 273 kts | 116° |
| 2026-04-26 23:14 | 39.09855 | -76.48317 | 6047 ft | 281 kts | 115° |
| 2026-04-26 23:14 | 39.09042 | -76.45994 | 6706 ft | 288 kts | 113° |
| 2026-04-26 23:14 | 39.08378 | -76.43573 | 7401 ft | 293 kts | 109° |
| 2026-04-26 23:14 | 39.07936 | -76.41893 | 7906 ft | 295 kts | 109° |
| 2026-04-26 23:15 | 39.07270 | -76.39381 | 8643 ft | 299 kts | 110° |
| 2026-04-26 23:15 | 39.06593 | -76.36835 | 9391 ft | 302 kts | 110° |
| 2026-04-26 23:15 | 39.05907 | -76.34261 | 10115 ft | 307 kts | 110° |
| 2026-04-26 23:15 | 39.05190 | -76.31589 | 10390 ft | 327 kts | 110° |
| 2026-04-26 23:16 | 39.04421 | -76.28728 | 10522 ft | 350 kts | 110° |
| 2026-04-26 23:16 | 39.03802 | -76.25653 | 10639 ft | 371 kts | 99° |
| 2026-04-26 23:16 | 39.03616 | -76.22287 | 10971 ft | 382 kts | 88° |
| 2026-04-26 23:16 | 39.03784 | -76.18854 | 11506 ft | 387 kts | 85° |
| 2026-04-26 23:17 | 39.03962 | -76.15384 | 12098 ft | 390 kts | 85° |
| 2026-04-26 23:17 | 39.04133 | -76.11882 | 12683 ft | 394 kts | 85° |
| 2026-04-26 23:17 | 39.04302 | -76.08355 | 13258 ft | 397 kts | 85° |
| 2026-04-26 23:17 | 39.04473 | -76.04789 | 13852 ft | 401 kts | 85° |
| 2026-04-26 23:18 | 39.04641 | -76.01194 | 14358 ft | 405 kts | 85° |
| 2026-04-26 23:18 | 39.04804 | -75.97564 | 14849 ft | 408 kts | 85° |
| 2026-04-26 23:18 | 39.04966 | -75.93910 | 15344 ft | 411 kts | 85° |
| 2026-04-26 23:18 | 39.05127 | -75.90229 | 15828 ft | 414 kts | 85° |
| 2026-04-26 23:19 | 39.05291 | -75.86524 | 16317 ft | 417 kts | 85° |
| 2026-04-26 23:19 | 39.05457 | -75.82784 | 16801 ft | 420 kts | 85° |
| 2026-04-26 23:19 | 39.05622 | -75.79026 | 17293 ft | 423 kts | 85° |
| 2026-04-26 23:19 | 39.05788 | -75.75236 | 17786 ft | 426 kts | 85° |
| 2026-04-26 23:20 | 39.05953 | -75.71417 | 18294 ft | 429 kts | 85° |
| 2026-04-26 23:20 | 39.06119 | -75.67572 | 18751 ft | 432 kts | 85° |
| 2026-04-26 23:20 | 39.06286 | -75.63704 | 19198 ft | 434 kts | 85° |
| 2026-04-26 23:20 | 39.06452 | -75.59812 | 19649 ft | 437 kts | 85° |
| 2026-04-26 23:21 | 39.06618 | -75.55897 | 20096 ft | 439 kts | 85° |
| 2026-04-26 23:21 | 39.06783 | -75.51962 | 20539 ft | 442 kts | 85° |
| 2026-04-26 23:21 | 39.06949 | -75.48005 | 20969 ft | 444 kts | 85° |
| 2026-04-26 23:21 | 39.07116 | -75.44026 | 21381 ft | 446 kts | 85° |
| 2026-04-26 23:22 | 39.07281 | -75.40031 | 21787 ft | 449 kts | 85° |
| 2026-04-26 23:22 | 39.07442 | -75.36006 | 22180 ft | 451 kts | 85° |
| 2026-04-26 23:22 | 39.07438 | -75.31959 | 22565 ft | 454 kts | 94° |
| 2026-04-26 23:22 | 39.06950 | -75.27935 | 22936 ft | 457 kts | 103° |
| 2026-04-26 23:23 | 39.06019 | -75.24015 | 23293 ft | 460 kts | 108° |
| 2026-04-26 23:23 | 39.05017 | -75.20100 | 23673 ft | 462 kts | 108° |
| 2026-04-26 23:23 | 39.04014 | -75.16158 | 23996 ft | 464 kts | 108° |
| 2026-04-26 23:23 | 39.03013 | -75.12205 | 24288 ft | 467 kts | 108° |
| 2026-04-26 23:24 | 39.02008 | -75.08223 | 24570 ft | 469 kts | 108° |
| 2026-04-26 23:24 | 39.00997 | -75.04221 | 24852 ft | 472 kts | 108° |
| 2026-04-26 23:24 | 38.99978 | -75.00195 | 25133 ft | 474 kts | 108° |
| 2026-04-26 23:24 | 38.98952 | -74.96158 | 25422 ft | 477 kts | 108° |
| 2026-04-26 23:25 | 38.97916 | -74.92096 | 25708 ft | 479 kts | 108° |
| 2026-04-26 23:25 | 38.96872 | -74.88020 | 25993 ft | 482 kts | 108° |
| 2026-04-26 23:25 | 38.95819 | -74.83926 | 26401 ft | 481 kts | 108° |
| 2026-04-26 23:25 | 38.94770 | -74.79851 | 26808 ft | 481 kts | 108° |
| 2026-04-26 23:26 | 38.93722 | -74.75772 | 27206 ft | 481 kts | 108° |
| 2026-04-26 23:26 | 38.92674 | -74.71694 | 27602 ft | 481 kts | 108° |
| 2026-04-26 23:26 | 38.91623 | -74.67619 | 28009 ft | 481 kts | 109° |
| 2026-04-26 23:26 | 38.90572 | -74.63550 | 28415 ft | 481 kts | 109° |
| 2026-04-26 23:27 | 38.89516 | -74.59477 | 28818 ft | 481 kts | 109° |
| 2026-04-26 23:27 | 38.88457 | -74.55408 | 29220 ft | 481 kts | 109° |
| 2026-04-26 23:27 | 38.87398 | -74.51342 | 29647 ft | 480 kts | 109° |
| 2026-04-26 23:27 | 38.86355 | -74.47330 | 30049 ft | 480 kts | 109° |
| 2026-04-26 23:28 | 38.85300 | -74.43261 | 30435 ft | 480 kts | 109° |
| 2026-04-26 23:28 | 38.84248 | -74.39208 | 30793 ft | 480 kts | 109° |
| 2026-04-26 23:28 | 38.83194 | -74.35153 | 31162 ft | 479 kts | 110° |
| 2026-04-26 23:28 | 38.82137 | -74.31107 | 31528 ft | 478 kts | 110° |
| 2026-04-26 23:29 | 38.81075 | -74.27064 | 31890 ft | 477 kts | 110° |
| 2026-04-26 23:29 | 38.80014 | -74.23034 | 32273 ft | 477 kts | 110° |
| 2026-04-26 23:29 | 38.78948 | -74.19019 | 32654 ft | 475 kts | 113° |
| 2026-04-26 23:29 | 38.77595 | -74.15168 | 33019 ft | 472 kts | 122° |
| 2026-04-26 23:30 | 38.75889 | -74.11600 | 33381 ft | 469 kts | 126° |
| 2026-04-26 23:30 | 38.74130 | -74.08087 | 33771 ft | 468 kts | 126° |
| 2026-04-26 23:30 | 38.72376 | -74.04582 | 34148 ft | 467 kts | 127° |
| 2026-04-26 23:30 | 38.70629 | -74.01081 | 34454 ft | 466 kts | 127° |
| 2026-04-26 23:31 | 38.68886 | -73.97591 | 34719 ft | 466 kts | 127° |
| 2026-04-26 23:31 | 38.67135 | -73.94087 | 34971 ft | 467 kts | 127° |
| 2026-04-26 23:31 | 38.65382 | -73.90584 | 35132 ft | 468 kts | 127° |
| 2026-04-26 23:32 | 38.61817 | -73.83486 | 35169 ft | 480 kts | 127° |
| 2026-04-26 23:32 | 38.58161 | -73.76225 | 35164 ft | 489 kts | 127° |
| 2026-04-26 23:33 | 38.54478 | -73.68903 | 35161 ft | 490 kts | 127° |
| 2026-04-26 23:33 | 38.50780 | -73.61576 | 35154 ft | 490 kts | 127° |
| 2026-04-26 23:34 | 38.47020 | -73.54321 | 35148 ft | 490 kts | 128° |
| 2026-04-26 23:34 | 38.43208 | -73.47131 | 35154 ft | 490 kts | 128° |
| 2026-04-26 23:35 | 38.39473 | -73.39847 | 35154 ft | 491 kts | 127° |
| 2026-04-26 23:35 | 38.35817 | -73.32488 | 35155 ft | 491 kts | 127° |
| 2026-04-26 23:36 | 38.32154 | -73.25143 | 35152 ft | 491 kts | 127° |
| 2026-04-26 23:36 | 38.28461 | -73.17842 | 35149 ft | 490 kts | 127° |
| 2026-04-26 23:37 | 38.24748 | -73.10567 | 35146 ft | 490 kts | 128° |
| 2026-04-26 23:37 | 38.21042 | -73.03291 | 35136 ft | 490 kts | 127° |
| 2026-04-26 23:38 | 38.17351 | -72.96032 | 35132 ft | 489 kts | 127° |
| 2026-04-26 23:38 | 38.13658 | -72.88847 | 35130 ft | 488 kts | 128° |
| 2026-04-26 23:39 | 38.09910 | -72.81659 | 35121 ft | 487 kts | 128° |
| 2026-04-26 23:39 | 38.06177 | -72.74485 | 35121 ft | 487 kts | 128° |
| 2026-04-26 23:40 | 38.02451 | -72.67314 | 35111 ft | 486 kts | 128° |
| 2026-04-26 23:40 | 37.98753 | -72.60139 | 35114 ft | 486 kts | 127° |
| 2026-04-26 23:41 | 37.95112 | -72.52928 | 35098 ft | 486 kts | 127° |
| 2026-04-26 23:41 | 37.91464 | -72.45735 | 35095 ft | 485 kts | 128° |
| 2026-04-26 23:42 | 37.87809 | -72.38571 | 35090 ft | 484 kts | 128° |
| 2026-04-26 23:42 | 37.82338 | -72.27852 | 35082 ft | 483 kts | 128° |
| 2026-04-26 23:43 | 37.78693 | -72.20716 | 35073 ft | 482 kts | 128° |
| 2026-04-26 23:43 | 37.75057 | -72.13592 | 35062 ft | 482 kts | 128° |
| 2026-04-26 23:44 | 37.71418 | -72.06484 | 35064 ft | 482 kts | 128° |
| 2026-04-26 23:44 | 37.67649 | -71.99535 | 35050 ft | 475 kts | 136° |
| 2026-04-26 23:45 | 37.62881 | -71.93947 | 35046 ft | 464 kts | 148° |
| 2026-04-26 23:45 | 37.57807 | -71.88908 | 35038 ft | 464 kts | 148° |
| 2026-04-26 23:46 | 37.52736 | -71.83869 | 35039 ft | 464 kts | 148° |
| 2026-04-26 23:46 | 37.47659 | -71.78835 | 35033 ft | 464 kts | 148° |
| 2026-04-26 23:47 | 37.42534 | -71.73933 | 35033 ft | 458 kts | 154° |
| 2026-04-26 23:47 | 37.36816 | -71.70764 | 35025 ft | 443 kts | 172° |
| 2026-04-26 23:48 | 37.30811 | -71.69709 | 35022 ft | 434 kts | 181° |
| 2026-04-26 23:48 | 37.24792 | -71.69085 | 35017 ft | 434 kts | 181° |
| 2026-04-26 23:49 | 37.18763 | -71.68447 | 35010 ft | 434 kts | 181° |
| 2026-04-26 23:49 | 37.12740 | -71.67816 | 35010 ft | 434 kts | 181° |
| 2026-04-26 23:50 | 37.06743 | -71.67197 | 35010 ft | 434 kts | 181° |
| 2026-04-26 23:50 | 37.00718 | -71.66582 | 35012 ft | 434 kts | 181° |
| 2026-04-26 23:51 | 36.94700 | -71.65961 | 35010 ft | 434 kts | 180° |
| 2026-04-26 23:51 | 36.88674 | -71.65333 | 35012 ft | 434 kts | 180° |
| 2026-04-26 23:52 | 36.82650 | -71.64715 | 35013 ft | 434 kts | 180° |
| 2026-04-26 23:52 | 36.76635 | -71.64102 | 35008 ft | 433 kts | 180° |
| 2026-04-26 23:53 | 36.70620 | -71.63480 | 35010 ft | 433 kts | 180° |
| 2026-04-26 23:53 | 36.64615 | -71.62859 | 35009 ft | 433 kts | 180° |
| 2026-04-26 23:54 | 36.58610 | -71.62236 | 35012 ft | 432 kts | 180° |
| 2026-04-26 23:54 | 36.52622 | -71.61632 | 35012 ft | 432 kts | 180° |
| 2026-04-26 23:55 | 36.46629 | -71.61019 | 35013 ft | 432 kts | 180° |
| 2026-04-26 23:55 | 36.40640 | -71.60411 | 35015 ft | 431 kts | 180° |
| 2026-04-26 23:56 | 36.34699 | -71.59814 | 35022 ft | 431 kts | 180° |
| 2026-04-26 23:56 | 36.28731 | -71.59208 | 35020 ft | 430 kts | 180° |
| 2026-04-26 23:57 | 36.22764 | -71.58593 | 35022 ft | 430 kts | 180° |
| 2026-04-26 23:57 | 36.16796 | -71.57983 | 35025 ft | 430 kts | 180° |
| 2026-04-26 23:58 | 36.10835 | -71.57389 | 35022 ft | 429 kts | 180° |
| 2026-04-26 23:58 | 36.04888 | -71.56801 | 35019 ft | 429 kts | 180° |
| 2026-04-26 23:59 | 35.99939 | -71.56297 | 35033 ft | 429 kts | 180° |
| 2026-04-26 23:59 | 35.93995 | -71.55688 | 35033 ft | 428 kts | 181° |
| 2026-04-27 00:00 | 35.88056 | -71.55094 | 35037 ft | 428 kts | 181° |
| 2026-04-27 00:00 | 35.82122 | -71.54508 | 35025 ft | 428 kts | 181° |
| 2026-04-27 00:01 | 35.76191 | -71.53914 | 35019 ft | 428 kts | 181° |
| 2026-04-27 00:01 | 35.70256 | -71.53308 | 35016 ft | 428 kts | 181° |
| 2026-04-27 00:02 | 35.64310 | -71.52696 | 35011 ft | 430 kts | 178° |
| 2026-04-27 00:02 | 35.58392 | -71.51285 | 35013 ft | 434 kts | 174° |
| 2026-04-27 00:03 | 35.52471 | -71.49758 | 35018 ft | 435 kts | 174° |
| 2026-04-27 00:03 | 35.46545 | -71.48235 | 35012 ft | 435 kts | 174° |
| 2026-04-27 00:04 | 35.40607 | -71.46719 | 35012 ft | 436 kts | 174° |
| 2026-04-27 00:04 | 35.34654 | -71.45198 | 35007 ft | 437 kts | 174° |
| 2026-04-27 00:05 | 35.28690 | -71.43672 | 35013 ft | 438 kts | 174° |
| 2026-04-27 00:05 | 35.22714 | -71.42157 | 35010 ft | 439 kts | 174° |
| 2026-04-27 00:06 | 35.16724 | -71.40636 | 35009 ft | 440 kts | 173° |
| 2026-04-27 00:06 | 35.10729 | -71.39112 | 35014 ft | 441 kts | 173° |
| 2026-04-27 00:07 | 35.04758 | -71.37597 | 35015 ft | 442 kts | 173° |
| 2026-04-27 00:07 | 34.98735 | -71.36071 | 35019 ft | 442 kts | 173° |
| 2026-04-27 00:08 | 34.92710 | -71.34544 | 35019 ft | 443 kts | 173° |
| 2026-04-27 00:08 | 34.86662 | -71.33017 | 35020 ft | 444 kts | 173° |
| 2026-04-27 00:09 | 34.80613 | -71.31494 | 35020 ft | 444 kts | 173° |
| 2026-04-27 00:09 | 34.74556 | -71.29963 | 35017 ft | 445 kts | 173° |
| 2026-04-27 00:10 | 34.68489 | -71.28433 | 35015 ft | 446 kts | 173° |
| 2026-04-27 00:10 | 34.62411 | -71.26915 | 35019 ft | 446 kts | 173° |
| 2026-04-27 00:11 | 34.56330 | -71.25404 | 35018 ft | 446 kts | 173° |
| 2026-04-27 00:11 | 34.50243 | -71.23885 | 35027 ft | 447 kts | 173° |
| 2026-04-27 00:12 | 34.44145 | -71.22359 | 35027 ft | 447 kts | 173° |
| 2026-04-27 00:12 | 34.38041 | -71.20832 | 35025 ft | 447 kts | 173° |
| 2026-04-27 00:13 | 34.31944 | -71.19310 | 35025 ft | 448 kts | 173° |
| 2026-04-27 00:13 | 34.25835 | -71.17791 | 35028 ft | 448 kts | 173° |
| 2026-04-27 00:14 | 34.19724 | -71.16277 | 35033 ft | 448 kts | 173° |
| 2026-04-27 00:14 | 34.13614 | -71.14764 | 35032 ft | 449 kts | 173° |
| 2026-04-27 00:15 | 34.07502 | -71.13252 | 35032 ft | 448 kts | 173° |
| 2026-04-27 00:15 | 34.01383 | -71.11738 | 35036 ft | 449 kts | 173° |
| 2026-04-27 00:16 | 33.95270 | -71.10211 | 35036 ft | 449 kts | 173° |
| 2026-04-27 00:16 | 33.89190 | -71.08709 | 35037 ft | 449 kts | 173° |
| 2026-04-27 00:17 | 33.83068 | -71.07208 | 35037 ft | 449 kts | 173° |
| 2026-04-27 00:17 | 33.76946 | -71.05714 | 35038 ft | 449 kts | 173° |
| 2026-04-27 00:18 | 33.70825 | -71.04214 | 35035 ft | 449 kts | 173° |
| 2026-04-27 00:18 | 33.64705 | -71.02719 | 35035 ft | 449 kts | 173° |
| 2026-04-27 00:19 | 33.58591 | -71.01214 | 35031 ft | 449 kts | 173° |
| 2026-04-27 00:19 | 33.52475 | -70.99718 | 35028 ft | 449 kts | 173° |
| 2026-04-27 00:20 | 33.46351 | -70.98228 | 35026 ft | 449 kts | 173° |
| 2026-04-27 00:20 | 33.40216 | -70.96738 | 35025 ft | 450 kts | 173° |
| 2026-04-27 00:21 | 33.34085 | -70.95245 | 35026 ft | 450 kts | 173° |
| 2026-04-27 00:21 | 33.27940 | -70.93745 | 35028 ft | 450 kts | 173° |
| 2026-04-27 00:22 | 33.21794 | -70.92261 | 35032 ft | 451 kts | 173° |
| 2026-04-27 00:22 | 33.15644 | -70.90783 | 35036 ft | 451 kts | 173° |
| 2026-04-27 00:23 | 33.09485 | -70.89299 | 35037 ft | 451 kts | 173° |
| 2026-04-27 00:23 | 33.03334 | -70.87809 | 35036 ft | 451 kts | 173° |
| 2026-04-27 00:24 | 32.97180 | -70.86313 | 35037 ft | 451 kts | 173° |
| 2026-04-27 00:24 | 32.91021 | -70.84830 | 35038 ft | 452 kts | 173° |
| 2026-04-27 00:25 | 32.84900 | -70.83361 | 35041 ft | 452 kts | 173° |
| 2026-04-27 00:25 | 32.78740 | -70.81882 | 35047 ft | 452 kts | 173° |
| 2026-04-27 00:26 | 32.72574 | -70.80406 | 35051 ft | 452 kts | 173° |
| 2026-04-27 00:26 | 32.66403 | -70.78931 | 35054 ft | 452 kts | 173° |
| 2026-04-27 00:27 | 32.60231 | -70.77452 | 35055 ft | 452 kts | 173° |
| 2026-04-27 00:27 | 32.54066 | -70.75980 | 35059 ft | 452 kts | 173° |
| 2026-04-27 00:28 | 32.47900 | -70.74507 | 35070 ft | 451 kts | 173° |
| 2026-04-27 00:28 | 32.41746 | -70.73037 | 35061 ft | 451 kts | 173° |
| 2026-04-27 00:29 | 32.35594 | -70.71584 | 35054 ft | 451 kts | 173° |
| 2026-04-27 00:29 | 32.29446 | -70.70126 | 35069 ft | 451 kts | 173° |
| 2026-04-27 00:30 | 32.23298 | -70.68659 | 35058 ft | 451 kts | 173° |
| 2026-04-27 00:30 | 32.17151 | -70.67201 | 35070 ft | 450 kts | 173° |
| 2026-04-27 00:31 | 32.11008 | -70.65746 | 35057 ft | 450 kts | 173° |
| 2026-04-27 00:31 | 32.04873 | -70.64289 | 35058 ft | 450 kts | 173° |
| 2026-04-27 00:32 | 31.98734 | -70.62841 | 35059 ft | 449 kts | 173° |
| 2026-04-27 00:32 | 31.92600 | -70.61417 | 35057 ft | 449 kts | 173° |
| 2026-04-27 00:33 | 31.86474 | -70.59976 | 35058 ft | 449 kts | 173° |
| 2026-04-27 00:33 | 31.80343 | -70.58527 | 35060 ft | 449 kts | 173° |
| 2026-04-27 00:34 | 31.74215 | -70.57098 | 35062 ft | 449 kts | 173° |
| 2026-04-27 00:34 | 31.68091 | -70.55669 | 35062 ft | 449 kts | 173° |
| 2026-04-27 00:35 | 31.61962 | -70.54230 | 35067 ft | 449 kts | 173° |
| 2026-04-27 00:35 | 31.55881 | -70.52815 | 35067 ft | 449 kts | 173° |
| 2026-04-27 00:36 | 31.49716 | -70.51374 | 35066 ft | 449 kts | 173° |
| 2026-04-27 00:36 | 31.43592 | -70.49942 | 35070 ft | 449 kts | 173° |
| 2026-04-27 00:37 | 31.37507 | -70.48523 | 35068 ft | 449 kts | 173° |
| 2026-04-27 00:37 | 31.31388 | -70.47098 | 35070 ft | 448 kts | 173° |
| 2026-04-27 00:38 | 31.25266 | -70.45681 | 35072 ft | 448 kts | 173° |
| 2026-04-27 00:38 | 31.19146 | -70.44272 | 35071 ft | 448 kts | 173° |
| 2026-04-27 00:39 | 31.13027 | -70.42851 | 35077 ft | 448 kts | 174° |
| 2026-04-27 00:39 | 31.06909 | -70.41433 | 35082 ft | 447 kts | 174° |
| 2026-04-27 00:40 | 31.00803 | -70.40023 | 35075 ft | 447 kts | 174° |
| 2026-04-27 00:40 | 30.94695 | -70.38616 | 35078 ft | 447 kts | 174° |
| 2026-04-27 00:41 | 30.88605 | -70.37211 | 35080 ft | 446 kts | 174° |
| 2026-04-27 00:41 | 30.82518 | -70.35813 | 35082 ft | 446 kts | 174° |
| 2026-04-27 00:42 | 30.76434 | -70.34420 | 35081 ft | 445 kts | 174° |
| 2026-04-27 00:42 | 30.71386 | -70.33263 | 35080 ft | 445 kts | 174° |
| 2026-04-27 00:43 | 30.65324 | -70.31878 | 35079 ft | 444 kts | 174° |
| 2026-04-27 00:43 | 30.59258 | -70.30491 | 35078 ft | 444 kts | 174° |
| 2026-04-27 00:44 | 30.52228 | -70.28876 | 35075 ft | 443 kts | 174° |
| 2026-04-27 00:44 | 30.47158 | -70.27721 | 35075 ft | 443 kts | 174° |
| 2026-04-27 00:45 | 30.40141 | -70.26125 | 35075 ft | 442 kts | 174° |
| 2026-04-27 00:45 | 30.35081 | -70.24974 | 35073 ft | 442 kts | 174° |
| 2026-04-27 00:46 | 30.29050 | -70.23597 | 35072 ft | 441 kts | 174° |
| 2026-04-27 00:46 | 30.23067 | -70.22243 | 35073 ft | 441 kts | 174° |
| 2026-04-27 00:47 | 30.17001 | -70.20877 | 35069 ft | 441 kts | 174° |
| 2026-04-27 00:47 | 30.11026 | -70.19520 | 35069 ft | 441 kts | 174° |
| 2026-04-27 00:48 | 30.05010 | -70.18160 | 35066 ft | 440 kts | 174° |
| 2026-04-27 00:48 | 29.98996 | -70.16799 | 35063 ft | 440 kts | 174° |
| 2026-04-27 00:49 | 29.92990 | -70.15441 | 35067 ft | 440 kts | 174° |
| 2026-04-27 00:49 | 29.86975 | -70.14082 | 35063 ft | 440 kts | 174° |
| 2026-04-27 00:50 | 29.77957 | -70.12055 | 35061 ft | 440 kts | 175° |
| 2026-04-27 00:51 | 29.71950 | -70.10713 | 35062 ft | 440 kts | 174° |
| 2026-04-27 00:51 | 29.65938 | -70.09361 | 35062 ft | 440 kts | 174° |
| 2026-04-27 00:52 | 29.59923 | -70.08010 | 35061 ft | 440 kts | 174° |
| 2026-04-27 00:52 | 29.53915 | -70.06663 | 35063 ft | 440 kts | 174° |
| 2026-04-27 00:53 | 29.47898 | -70.05315 | 35061 ft | 440 kts | 174° |
| 2026-04-27 00:53 | 29.41929 | -70.03979 | 35059 ft | 440 kts | 174° |
| 2026-04-27 00:54 | 29.35926 | -70.02635 | 35055 ft | 440 kts | 174° |
| 2026-04-27 00:54 | 29.29920 | -70.01304 | 35053 ft | 440 kts | 174° |
| 2026-04-27 00:55 | 29.23916 | -69.99974 | 35047 ft | 440 kts | 174° |
| 2026-04-27 00:55 | 29.17905 | -69.98646 | 35054 ft | 440 kts | 174° |
| 2026-04-27 00:56 | 29.11892 | -69.97306 | 35054 ft | 440 kts | 174° |
| 2026-04-27 00:56 | 29.05877 | -69.95960 | 35053 ft | 440 kts | 174° |
| 2026-04-27 00:57 | 28.99861 | -69.94626 | 35058 ft | 441 kts | 174° |
| 2026-04-27 00:57 | 28.93841 | -69.93300 | 35056 ft | 441 kts | 174° |
| 2026-04-27 00:58 | 28.87814 | -69.91975 | 35058 ft | 441 kts | 174° |
| 2026-04-27 00:58 | 28.81788 | -69.90644 | 35049 ft | 441 kts | 174° |
| 2026-04-27 00:59 | 28.75763 | -69.89312 | 35062 ft | 441 kts | 173° |
| 2026-04-27 00:59 | 28.69736 | -69.87984 | 35059 ft | 441 kts | 174° |
| 2026-04-27 01:00 | 28.63700 | -69.86657 | 35060 ft | 441 kts | 173° |
| 2026-04-27 01:00 | 28.57668 | -69.85341 | 35061 ft | 441 kts | 173° |
| 2026-04-27 01:01 | 28.51643 | -69.84024 | 35058 ft | 441 kts | 173° |
| 2026-04-27 01:01 | 28.45619 | -69.82699 | 35057 ft | 441 kts | 173° |
| 2026-04-27 01:02 | 28.39595 | -69.81377 | 35056 ft | 441 kts | 173° |
| 2026-04-27 01:02 | 28.33571 | -69.80064 | 35052 ft | 441 kts | 173° |
| 2026-04-27 01:03 | 28.27554 | -69.78748 | 35052 ft | 440 kts | 173° |
| 2026-04-27 01:03 | 28.21536 | -69.77440 | 35055 ft | 440 kts | 173° |
| 2026-04-27 01:04 | 28.15520 | -69.76137 | 35050 ft | 440 kts | 173° |
| 2026-04-27 01:04 | 28.09499 | -69.74820 | 35051 ft | 441 kts | 173° |
| 2026-04-27 01:05 | 28.03475 | -69.73502 | 35048 ft | 441 kts | 173° |
| 2026-04-27 01:05 | 27.97446 | -69.72188 | 35048 ft | 441 kts | 173° |
| 2026-04-27 01:06 | 27.91418 | -69.70893 | 35045 ft | 441 kts | 173° |
| 2026-04-27 01:06 | 27.85429 | -69.69600 | 35049 ft | 441 kts | 173° |
| 2026-04-27 01:07 | 27.79396 | -69.68296 | 35049 ft | 441 kts | 173° |
| 2026-04-27 01:07 | 27.73364 | -69.66988 | 35051 ft | 441 kts | 173° |
| 2026-04-27 01:08 | 27.67334 | -69.65683 | 35052 ft | 441 kts | 173° |
| 2026-04-27 01:08 | 27.61297 | -69.64378 | 35051 ft | 442 kts | 173° |
| 2026-04-27 01:09 | 27.55257 | -69.63081 | 35049 ft | 442 kts | 173° |
| 2026-04-27 01:09 | 27.49218 | -69.61783 | 35050 ft | 442 kts | 173° |
| 2026-04-27 01:10 | 27.43173 | -69.60479 | 35052 ft | 442 kts | 173° |
| 2026-04-27 01:10 | 27.37125 | -69.59176 | 35057 ft | 442 kts | 173° |
| 2026-04-27 01:11 | 27.31080 | -69.57883 | 35056 ft | 442 kts | 173° |
| 2026-04-27 01:11 | 27.25029 | -69.56588 | 35056 ft | 442 kts | 173° |
| 2026-04-27 01:12 | 27.18984 | -69.55290 | 35057 ft | 442 kts | 173° |
| 2026-04-27 01:12 | 27.12934 | -69.54002 | 35055 ft | 443 kts | 173° |
| 2026-04-27 01:13 | 27.06881 | -69.52721 | 35056 ft | 443 kts | 173° |
| 2026-04-27 01:13 | 27.00836 | -69.51429 | 35056 ft | 442 kts | 173° |
| 2026-04-27 01:14 | 26.94789 | -69.50135 | 35049 ft | 442 kts | 173° |
| 2026-04-27 01:14 | 26.88741 | -69.48855 | 35052 ft | 442 kts | 173° |
| 2026-04-27 01:15 | 26.82693 | -69.47566 | 35064 ft | 443 kts | 173° |
| 2026-04-27 01:15 | 26.76638 | -69.46273 | 35059 ft | 443 kts | 173° |
| 2026-04-27 01:16 | 26.70594 | -69.44985 | 35056 ft | 442 kts | 173° |
| 2026-04-27 01:16 | 26.64546 | -69.43712 | 35058 ft | 442 kts | 173° |
| 2026-04-27 01:17 | 26.58500 | -69.42441 | 35055 ft | 442 kts | 173° |
| 2026-04-27 01:17 | 26.52460 | -69.41165 | 35050 ft | 442 kts | 173° |
| 2026-04-27 01:18 | 26.46457 | -69.39897 | 35055 ft | 442 kts | 173° |
| 2026-04-27 01:18 | 26.40413 | -69.38621 | 35049 ft | 442 kts | 173° |
| 2026-04-27 01:19 | 26.34374 | -69.37346 | 35047 ft | 442 kts | 173° |
| 2026-04-27 01:19 | 26.28333 | -69.36063 | 35048 ft | 442 kts | 173° |
| 2026-04-27 01:20 | 26.22293 | -69.34795 | 35046 ft | 442 kts | 173° |
| 2026-04-27 01:20 | 26.16256 | -69.33537 | 35045 ft | 442 kts | 174° |
| 2026-04-27 01:21 | 26.10214 | -69.32272 | 35044 ft | 442 kts | 174° |
| 2026-04-27 01:21 | 26.04169 | -69.31001 | 35043 ft | 442 kts | 174° |
| 2026-04-27 01:22 | 25.98130 | -69.29730 | 35045 ft | 442 kts | 174° |
| 2026-04-27 01:22 | 25.92086 | -69.28460 | 35041 ft | 442 kts | 174° |
| 2026-04-27 01:23 | 25.86036 | -69.27204 | 35043 ft | 442 kts | 174° |
| 2026-04-27 01:23 | 25.79989 | -69.25952 | 35044 ft | 442 kts | 174° |
| 2026-04-27 01:24 | 25.73938 | -69.24687 | 35041 ft | 442 kts | 174° |
| 2026-04-27 01:24 | 25.67888 | -69.23422 | 35044 ft | 442 kts | 175° |
| 2026-04-27 01:25 | 25.61836 | -69.22169 | 35042 ft | 442 kts | 175° |
| 2026-04-27 01:25 | 25.55791 | -69.20905 | 35041 ft | 442 kts | 175° |
| 2026-04-27 01:26 | 25.49735 | -69.19651 | 35041 ft | 442 kts | 175° |
| 2026-04-27 01:26 | 25.43684 | -69.18401 | 35041 ft | 443 kts | 175° |
| 2026-04-27 01:27 | 25.37627 | -69.17147 | 35043 ft | 443 kts | 175° |
| 2026-04-27 01:27 | 25.31567 | -69.15888 | 35042 ft | 443 kts | 175° |
| 2026-04-27 01:28 | 25.25508 | -69.14631 | 35044 ft | 443 kts | 176° |
| 2026-04-27 01:28 | 25.19447 | -69.13379 | 35044 ft | 443 kts | 176° |
| 2026-04-27 01:29 | 25.13391 | -69.12126 | 35040 ft | 443 kts | 176° |
| 2026-04-27 01:29 | 25.08356 | -69.11088 | 35037 ft | 443 kts | 176° |
| 2026-04-27 01:30 | 25.01274 | -69.09633 | 35038 ft | 443 kts | 177° |
| 2026-04-27 01:30 | 24.96246 | -69.08541 | 35036 ft | 444 kts | 175° |
| 2026-04-27 01:31 | 24.90208 | -69.07042 | 35034 ft | 445 kts | 175° |
| 2026-04-27 01:31 | 24.84178 | -69.05508 | 35035 ft | 445 kts | 175° |
| 2026-04-27 01:32 | 24.78148 | -69.04005 | 35027 ft | 444 kts | 176° |
| 2026-04-27 01:32 | 24.72112 | -69.02534 | 35031 ft | 444 kts | 176° |
| 2026-04-27 01:33 | 24.66085 | -69.01065 | 35027 ft | 444 kts | 176° |
| 2026-04-27 01:33 | 24.60061 | -68.99593 | 35026 ft | 444 kts | 176° |
| 2026-04-27 01:34 | 24.54033 | -68.98120 | 35028 ft | 443 kts | 176° |
| 2026-04-27 01:34 | 24.48005 | -68.96659 | 35024 ft | 443 kts | 177° |
| 2026-04-27 01:35 | 24.41977 | -68.95199 | 35027 ft | 443 kts | 177° |
| 2026-04-27 01:35 | 24.35952 | -68.93729 | 35020 ft | 444 kts | 177° |
| 2026-04-27 01:36 | 24.29932 | -68.92248 | 35022 ft | 444 kts | 177° |
| 2026-04-27 01:36 | 24.23901 | -68.90757 | 35021 ft | 444 kts | 177° |
| 2026-04-27 01:37 | 24.17871 | -68.89264 | 35018 ft | 444 kts | 177° |
| 2026-04-27 01:37 | 24.11837 | -68.87771 | 35015 ft | 444 kts | 177° |
| 2026-04-27 01:38 | 24.05808 | -68.86296 | 35019 ft | 444 kts | 177° |
| 2026-04-27 01:38 | 23.99770 | -68.84820 | 35021 ft | 444 kts | 177° |
| 2026-04-27 01:39 | 23.93736 | -68.83337 | 35024 ft | 444 kts | 177° |
| 2026-04-27 01:39 | 23.87703 | -68.81856 | 35026 ft | 444 kts | 177° |
| 2026-04-27 01:40 | 23.81675 | -68.80380 | 35025 ft | 444 kts | 177° |
| 2026-04-27 01:40 | 23.75689 | -68.78917 | 35028 ft | 444 kts | 177° |
| 2026-04-27 01:41 | 23.69667 | -68.77448 | 35028 ft | 444 kts | 177° |
| 2026-04-27 01:41 | 23.63644 | -68.75976 | 35030 ft | 443 kts | 177° |
| 2026-04-27 01:42 | 23.57614 | -68.74510 | 35030 ft | 444 kts | 177° |
| 2026-04-27 01:42 | 23.51596 | -68.72874 | 35030 ft | 447 kts | 175° |
| 2026-04-27 01:43 | 23.45582 | -68.71089 | 35029 ft | 448 kts | 174° |
| 2026-04-27 01:43 | 23.39566 | -68.69317 | 35029 ft | 448 kts | 175° |
| 2026-04-27 01:44 | 23.33546 | -68.67587 | 35029 ft | 447 kts | 175° |
| 2026-04-27 01:44 | 23.27530 | -68.65880 | 35028 ft | 447 kts | 175° |
| 2026-04-27 01:45 | 23.21511 | -68.64179 | 35026 ft | 447 kts | 175° |
| 2026-04-27 01:45 | 23.15493 | -68.62479 | 35027 ft | 447 kts | 175° |
| 2026-04-27 01:46 | 23.09479 | -68.60772 | 35028 ft | 447 kts | 175° |
| 2026-04-27 01:46 | 23.03463 | -68.59062 | 35028 ft | 447 kts | 175° |
| 2026-04-27 01:47 | 22.97446 | -68.57351 | 35028 ft | 447 kts | 175° |
| 2026-04-27 01:47 | 22.91435 | -68.55647 | 35028 ft | 447 kts | 175° |
| 2026-04-27 01:48 | 22.85413 | -68.53944 | 35027 ft | 447 kts | 175° |
| 2026-04-27 01:48 | 22.79397 | -68.52240 | 35026 ft | 447 kts | 175° |
| 2026-04-27 01:49 | 22.73376 | -68.50545 | 35027 ft | 447 kts | 175° |
| 2026-04-27 01:49 | 22.67353 | -68.48851 | 35026 ft | 447 kts | 175° |
| 2026-04-27 01:50 | 22.61334 | -68.47149 | 35025 ft | 447 kts | 175° |
| 2026-04-27 01:50 | 22.55308 | -68.45449 | 35027 ft | 447 kts | 175° |
| 2026-04-27 01:51 | 22.49288 | -68.43751 | 35024 ft | 447 kts | 175° |
| 2026-04-27 01:51 | 22.43263 | -68.42064 | 35022 ft | 447 kts | 175° |
| 2026-04-27 01:52 | 22.37242 | -68.40372 | 35026 ft | 447 kts | 174° |
| 2026-04-27 01:52 | 22.31219 | -68.38676 | 35025 ft | 447 kts | 174° |
| 2026-04-27 01:53 | 22.25194 | -68.36989 | 35027 ft | 447 kts | 174° |
| 2026-04-27 01:53 | 22.19172 | -68.35307 | 35031 ft | 447 kts | 174° |
| 2026-04-27 01:54 | 22.13187 | -68.33633 | 35031 ft | 447 kts | 174° |
| 2026-04-27 01:54 | 22.07161 | -68.31941 | 35030 ft | 447 kts | 174° |
| 2026-04-27 01:55 | 22.01136 | -68.30256 | 35028 ft | 447 kts | 174° |
| 2026-04-27 01:55 | 21.95109 | -68.28572 | 35034 ft | 447 kts | 174° |
| 2026-04-27 01:56 | 21.86069 | -68.26046 | 35029 ft | 448 kts | 175° |
| 2026-04-27 01:56 | 21.80040 | -68.24370 | 35032 ft | 448 kts | 174° |
| 2026-04-27 01:57 | 21.74007 | -68.22693 | 35033 ft | 448 kts | 174° |
| 2026-04-27 01:57 | 21.67973 | -68.21013 | 35028 ft | 448 kts | 174° |
| 2026-04-27 01:58 | 21.61940 | -68.19338 | 35031 ft | 448 kts | 175° |
| 2026-04-27 01:58 | 21.55899 | -68.17661 | 35033 ft | 448 kts | 174° |
| 2026-04-27 01:59 | 21.49865 | -68.15982 | 35029 ft | 448 kts | 174° |
| 2026-04-27 01:59 | 21.43819 | -68.14307 | 35029 ft | 449 kts | 175° |
| 2026-04-27 02:00 | 21.37772 | -68.12638 | 35026 ft | 449 kts | 175° |
| 2026-04-27 02:00 | 21.31730 | -68.10961 | 35031 ft | 449 kts | 174° |
| 2026-04-27 02:01 | 21.25675 | -68.09279 | 35026 ft | 449 kts | 174° |
| 2026-04-27 02:01 | 21.19620 | -68.07613 | 35028 ft | 449 kts | 174° |
| 2026-04-27 02:02 | 21.13567 | -68.05940 | 35030 ft | 449 kts | 174° |
| 2026-04-27 02:02 | 21.07510 | -68.04277 | 35034 ft | 449 kts | 174° |
| 2026-04-27 02:03 | 21.01453 | -68.02609 | 35047 ft | 449 kts | 174° |
| 2026-04-27 02:03 | 20.95397 | -68.00938 | 35043 ft | 449 kts | 174° |
| 2026-04-27 02:04 | 20.89390 | -67.98977 | 35038 ft | 461 kts | 163° |
| 2026-04-27 02:04 | 20.86561 | -67.97277 | 35042 ft | 473 kts | 153° |
| 2026-04-27 02:04 | 20.83986 | -67.95023 | 35039 ft | 485 kts | 143° |
| 2026-04-27 02:05 | 20.79652 | -67.89364 | 35038 ft | 494 kts | 135° |
| 2026-04-27 02:05 | 20.75443 | -67.83561 | 35040 ft | 494 kts | 135° |
| 2026-04-27 02:06 | 20.71222 | -67.77764 | 35039 ft | 494 kts | 135° |
| 2026-04-27 02:06 | 20.66997 | -67.71974 | 35045 ft | 494 kts | 135° |
| 2026-04-27 02:07 | 20.62773 | -67.66187 | 35045 ft | 494 kts | 135° |
| 2026-04-27 02:07 | 20.58579 | -67.60443 | 35044 ft | 494 kts | 135° |
| 2026-04-27 02:08 | 20.54350 | -67.54669 | 35041 ft | 494 kts | 135° |
| 2026-04-27 02:08 | 20.50122 | -67.48900 | 35041 ft | 494 kts | 135° |
| 2026-04-27 02:09 | 20.45895 | -67.43133 | 35043 ft | 494 kts | 135° |
| 2026-04-27 02:09 | 20.41661 | -67.37365 | 35045 ft | 494 kts | 135° |
| 2026-04-27 02:10 | 20.37436 | -67.31597 | 35044 ft | 493 kts | 135° |
| 2026-04-27 02:10 | 20.33208 | -67.25842 | 35053 ft | 493 kts | 135° |
| 2026-04-27 02:11 | 20.28978 | -67.20093 | 35053 ft | 493 kts | 135° |
| 2026-04-27 02:11 | 20.24743 | -67.14344 | 35051 ft | 493 kts | 135° |
| 2026-04-27 02:12 | 20.20515 | -67.08602 | 35052 ft | 493 kts | 135° |
| 2026-04-27 02:12 | 20.16280 | -67.02868 | 35050 ft | 492 kts | 135° |
| 2026-04-27 02:13 | 20.12042 | -66.97134 | 34583 ft | 492 kts | 135° |
| 2026-04-27 02:13 | 20.09938 | -66.94280 | 34355 ft | 491 kts | 135° |
| 2026-04-27 02:13 | 20.07821 | -66.91418 | 34129 ft | 493 kts | 135° |
| 2026-04-27 02:14 | 20.05697 | -66.88552 | 33879 ft | 494 kts | 135° |
| 2026-04-27 02:14 | 20.03569 | -66.85685 | 33615 ft | 495 kts | 135° |
| 2026-04-27 02:14 | 20.01402 | -66.82840 | 33005 ft | 493 kts | 139° |
| 2026-04-27 02:14 | 19.98942 | -66.80333 | 31967 ft | 483 kts | 148° |
| 2026-04-27 02:15 | 19.96245 | -66.78305 | 31098 ft | 471 kts | 156° |
| 2026-04-27 02:15 | 19.93351 | -66.76690 | 30156 ft | 471 kts | 161° |
| 2026-04-27 02:15 | 19.90388 | -66.75142 | 29062 ft | 477 kts | 160° |
| 2026-04-27 02:15 | 19.87403 | -66.73580 | 27993 ft | 481 kts | 160° |
| 2026-04-27 02:16 | 19.85411 | -66.72533 | 27246 ft | 484 kts | 160° |
| 2026-04-27 02:16 | 19.82379 | -66.70934 | 26081 ft | 489 kts | 159° |
| 2026-04-27 02:16 | 19.79350 | -66.69326 | 25340 ft | 481 kts | 159° |
| 2026-04-27 02:16 | 19.76369 | -66.67740 | 24565 ft | 477 kts | 159° |
| 2026-04-27 02:17 | 19.73407 | -66.66171 | 23774 ft | 474 kts | 158° |
| 2026-04-27 02:17 | 19.70466 | -66.64618 | 22909 ft | 469 kts | 158° |
| 2026-04-27 02:17 | 19.67603 | -66.63108 | 22163 ft | 449 kts | 158° |
| 2026-04-27 02:17 | 19.64829 | -66.61647 | 21424 ft | 443 kts | 158° |
| 2026-04-27 02:18 | 19.62075 | -66.60202 | 20687 ft | 440 kts | 158° |
| 2026-04-27 02:18 | 19.59340 | -66.58769 | 19970 ft | 436 kts | 157° |
| 2026-04-27 02:18 | 19.56632 | -66.57352 | 19262 ft | 433 kts | 157° |
| 2026-04-27 02:18 | 19.53938 | -66.55943 | 18574 ft | 430 kts | 156° |
| 2026-04-27 02:19 | 19.51264 | -66.54541 | 17815 ft | 427 kts | 156° |
| 2026-04-27 02:19 | 19.48618 | -66.53151 | 17146 ft | 423 kts | 156° |
| 2026-04-27 02:19 | 19.45997 | -66.51773 | 16535 ft | 418 kts | 156° |
| 2026-04-27 02:19 | 19.43410 | -66.50412 | 15920 ft | 414 kts | 156° |
| 2026-04-27 02:20 | 19.40873 | -66.49079 | 15306 ft | 410 kts | 156° |
| 2026-04-27 02:20 | 19.38328 | -66.47743 | 14691 ft | 407 kts | 156° |
| 2026-04-27 02:20 | 19.35800 | -66.46419 | 14070 ft | 404 kts | 156° |
| 2026-04-27 02:20 | 19.33288 | -66.45105 | 13374 ft | 401 kts | 156° |
| 2026-04-27 02:21 | 19.30796 | -66.43802 | 12714 ft | 397 kts | 155° |
| 2026-04-27 02:21 | 19.28328 | -66.42512 | 12074 ft | 393 kts | 155° |
| 2026-04-27 02:21 | 19.25927 | -66.41257 | 11887 ft | 376 kts | 155° |
| 2026-04-27 02:21 | 19.23631 | -66.40056 | 11762 ft | 359 kts | 155° |
| 2026-04-27 02:22 | 19.21438 | -66.38908 | 11639 ft | 344 kts | 156° |
| 2026-04-27 02:22 | 19.19328 | -66.37806 | 11515 ft | 331 kts | 156° |
| 2026-04-27 02:22 | 19.17295 | -66.36743 | 11393 ft | 320 kts | 156° |
| 2026-04-27 02:22 | 19.15330 | -66.35716 | 11276 ft | 310 kts | 156° |
| 2026-04-27 02:23 | 19.13422 | -66.34719 | 11071 ft | 302 kts | 156° |
| 2026-04-27 02:23 | 19.11554 | -66.33743 | 10987 ft | 299 kts | 156° |
| 2026-04-27 02:23 | 19.09681 | -66.32794 | 10802 ft | 298 kts | 157° |
| 2026-04-27 02:23 | 19.07800 | -66.31892 | 10581 ft | 296 kts | 158° |
| 2026-04-27 02:24 | 19.05924 | -66.31010 | 10352 ft | 295 kts | 158° |
| 2026-04-27 02:24 | 19.04053 | -66.30133 | 10140 ft | 294 kts | 158° |
| 2026-04-27 02:24 | 19.02190 | -66.29258 | 9921 ft | 292 kts | 158° |
| 2026-04-27 02:24 | 19.00339 | -66.28382 | 9689 ft | 291 kts | 157° |
| 2026-04-27 02:25 | 18.98495 | -66.27506 | 9470 ft | 290 kts | 157° |
| 2026-04-27 02:25 | 18.96660 | -66.26632 | 9254 ft | 289 kts | 157° |
| 2026-04-27 02:25 | 18.94829 | -66.25761 | 9042 ft | 288 kts | 157° |
| 2026-04-27 02:25 | 18.93003 | -66.24893 | 8826 ft | 287 kts | 157° |
| 2026-04-27 02:26 | 18.91186 | -66.24030 | 8603 ft | 286 kts | 157° |
| 2026-04-27 02:26 | 18.89377 | -66.23168 | 8399 ft | 285 kts | 157° |
| 2026-04-27 02:26 | 18.87573 | -66.22309 | 8187 ft | 284 kts | 156° |
| 2026-04-27 02:26 | 18.85801 | -66.21465 | 7978 ft | 283 kts | 156° |
| 2026-04-27 02:27 | 18.83988 | -66.20602 | 7763 ft | 281 kts | 156° |
| 2026-04-27 02:27 | 18.82209 | -66.19754 | 7554 ft | 280 kts | 156° |
| 2026-04-27 02:27 | 18.80435 | -66.18910 | 7347 ft | 279 kts | 156° |
| 2026-04-27 02:27 | 18.78691 | -66.18079 | 7144 ft | 278 kts | 156° |
| 2026-04-27 02:28 | 18.76909 | -66.17231 | 6933 ft | 277 kts | 156° |
| 2026-04-27 02:28 | 18.75088 | -66.16602 | 6734 ft | 275 kts | 171° |
| 2026-04-27 02:28 | 18.73217 | -66.16509 | 6528 ft | 273 kts | 185° |
| 2026-04-27 02:28 | 18.71331 | -66.16735 | 6324 ft | 273 kts | 186° |
| 2026-04-27 02:29 | 18.69446 | -66.16957 | 6112 ft | 272 kts | 186° |
| 2026-04-27 02:29 | 18.67568 | -66.17174 | 5874 ft | 272 kts | 186° |
| 2026-04-27 02:29 | 18.65694 | -66.17390 | 5498 ft | 269 kts | 186° |
| 2026-04-27 02:29 | 18.63832 | -66.17605 | 5148 ft | 268 kts | 186° |
| 2026-04-27 02:30 | 18.61986 | -66.17817 | 4803 ft | 266 kts | 186° |
| 2026-04-27 02:30 | 18.60151 | -66.18026 | 4448 ft | 265 kts | 186° |
| 2026-04-27 02:30 | 18.58324 | -66.18234 | 4107 ft | 264 kts | 186° |
| 2026-04-27 02:30 | 18.56504 | -66.18442 | 3758 ft | 263 kts | 186° |
| 2026-04-27 02:31 | 18.54693 | -66.18649 | 3483 ft | 260 kts | 186° |
| 2026-04-27 02:31 | 18.52936 | -66.18851 | 3398 ft | 249 kts | 186° |
| 2026-04-27 02:31 | 18.51248 | -66.19046 | 3298 ft | 239 kts | 186° |
| 2026-04-27 02:31 | 18.49635 | -66.19233 | 3196 ft | 228 kts | 186° |
| 2026-04-27 02:32 | 18.48092 | -66.19404 | 3096 ft | 217 kts | 182° |
| 2026-04-27 02:32 | 18.46644 | -66.19239 | 3054 ft | 204 kts | 163° |
| 2026-04-27 02:32 | 18.45411 | -66.18652 | 3005 ft | 187 kts | 147° |
| 2026-04-27 02:32 | 18.44466 | -66.17786 | 2881 ft | 175 kts | 131° |
| 2026-04-27 02:33 | 18.43815 | -66.16742 | 2740 ft | 168 kts | 116° |
| 2026-04-27 02:33 | 18.43458 | -66.15597 | 2573 ft | 163 kts | 102° |
| 2026-04-27 02:33 | 18.43381 | -66.14420 | 2387 ft | 160 kts | 92° |
| 2026-04-27 02:33 | 18.43379 | -66.13261 | 2188 ft | 157 kts | 91° |
| 2026-04-27 02:34 | 18.43377 | -66.12127 | 2073 ft | 152 kts | 91° |
| 2026-04-27 02:34 | 18.43375 | -66.11001 | 1945 ft | 156 kts | 91° |
| 2026-04-27 02:34 | 18.43373 | -66.09866 | 1657 ft | 153 kts | 91° |
| 2026-04-27 02:34 | 18.43371 | -66.08765 | 1416 ft | 149 kts | 91° |
| 2026-04-27 02:35 | 18.43369 | -66.07682 | 1218 ft | 148 kts | 92° |
| 2026-04-27 02:35 | 18.43367 | -66.06603 | 1027 ft | 147 kts | 91° |
| 2026-04-27 02:35 | 18.43364 | -66.05529 | 837 ft | 147 kts | 91° |
| 2026-04-27 02:35 | 18.43362 | -66.04452 | 637 ft | 148 kts | 92° |
| 2026-04-27 02:36 | 18.43361 | -66.03371 | 423 ft | 148 kts | 91° |
| 2026-04-27 02:36 | 18.43361 | -66.02290 | 225 ft | 147 kts | 92° |
| 2026-04-27 02:36 | 18.43359 | -66.01217 | -12 ft | 146 kts | 92° |
| 2026-04-27 02:36 | 18.43355 | -66.00324 | -39 ft | 83 kts | 90° |
| 2026-04-27 02:37 | 18.43364 | -66.00017 | -40 ft | 22 kts | 75° |
| 2026-04-27 02:37 | 18.43410 | -65.99913 | -35 ft | 10 kts | 58° |
| 2026-04-27 02:37 | 18.43464 | -65.99931 | -43 ft | 10 kts | 289° |
| 2026-04-27 02:37 | 18.43466 | -66.00005 | -29 ft | 11 kts | 270° |
| 2026-04-27 02:38 | 18.43467 | -66.00096 | -30 ft | 13 kts | 270° |
| 2026-04-27 02:38 | 18.43467 | -66.00183 | -32 ft | 10 kts | 270° |
| 2026-04-27 02:38 | 18.43495 | -66.00227 | -36 ft | 5 kts | 349° |
| 2026-04-27 02:38 | 18.43501 | -66.00228 | -37 ft | 1 kts | 356° |
| 2026-04-27 02:39 | 18.43540 | -66.00232 | -27 ft | 9 kts | 346° |
| 2026-04-27 02:39 | 18.43593 | -66.00247 | -41 ft | 6 kts | 356° |
| 2026-04-27 02:39 | 18.43619 | -66.00247 | -32 ft | 2 kts | 1° |
| 2026-04-27 02:39 | 18.43628 | -66.00247 | -42 ft | 0 kts | 2° |